Página principal
METAR-TAF:

METAR-TAF

Aeroportos :

Aeroporto Internacional Simón Bolívar

Caracas, Venezuela

latitude: 10-36N, longitude: 066-59W, altura: 43 m

Observação actual do tempo

O boletim foi feito há 7 horas e 58 minutos, às 11:00 UTC
Vento 2 kt de es-nordeste
Temperatura 24°C
Humidade 89%
Pressão 1012 hPa
Visibilidade 10 km ou mais
Nuvens dispersasa uma altura de 1600 ft

METAR: SVMI 191100Z 07002KT 9999 SCT016 24/22 Q1012

Hora: 14:58 (18:58 UTC)

Previsão

O boletim foi feito há 2 horas e 58 minutos, às 16:00 UTC
Previsão válida de 19 às 18 UTC a 20 às 18 UTC
Vento 2 kt com direcção variável
Visibilidade 10 km ou mais
Nuvens dispersasa uma altura de 1600 ft
Temporariamente
de 19 às 20 UTC a 20 às 00 UTC
Vento 5 kt de es-nordeste
Visibilidade: 9000 m
Nuvens dispersasa uma altura de 1300 ft
Nuvens dispersasa uma altura de 10000 ft
trovoada, chuvisco

TAF: SVMI 191600Z 1918/2018 VRB02KT 9999 SCT016 TX33/19Z TN23/06Z TEMPO 1920/2000 07005KT 9000 TSDZ SCT013 SCT100

Observações e previsões do tempo de mais de 4000 aeroportos (mensagens METAR e TAF).

As estações disponíveis são os pontos amarelos e vermelhos sobre o mapa.

Mova o rato sobre o mapa para ver o nome da estação.

Depois clique no ponto para visualizar as observações e previsões meteorológicas.

Para alterar o mapa : clique nos botões verdes com uma cruz preta para aumentar o zoom; no botão verde com uma pitada de zoom; ou nas setas verdes para mapas adjacentes.


METAR-TAF: